Time;durP1;ratioP1;P1;durP2;ratioP2;P2;SDS_P1;SDS_P2;PMS_P1;PMS_P2;Temp;Humidity;BMP_temperature;BMP_pressure;BME280_temperature;BME280_humidity;BME280_pressure;Samples;Min_cycle;Max_cycle;Signal;HPM_P1;HPM_P2
2023/08/16 00:01:27;;;;;;;44.22;27.10;;;15.50;99.90;;;;;;4968807;28;20100;-72
2023/08/16 00:03:54;;;;;;;44.15;27.35;;;15.50;99.90;;;;;;4971448;28;20078;-73
2023/08/16 00:06:22;;;;;;;37.50;26.50;;;15.60;99.90;;;;;;4974745;28;20544;-73
2023/08/16 00:08:53;;;;;;;39.50;25.80;;;15.70;99.90;;;;;;4970288;28;20505;-72
2023/08/16 00:11:19;;;;;;;38.17;26.17;;;15.70;99.90;;;;;;4966119;28;20038;-72
2023/08/16 00:13:46;;;;;;;45.65;27.10;;;15.90;99.90;;;;;;4972737;28;20048;-72
2023/08/16 00:16:13;;;;;;;39.53;25.10;;;15.80;99.90;;;;;;4968449;28;20093;-72
2023/08/16 00:18:40;;;;;;;32.53;24.52;;;15.70;99.90;;;;;;4966622;28;20078;-72
2023/08/16 00:21:06;;;;;;;30.00;21.98;;;15.60;99.90;;;;;;4970405;28;20050;-72
2023/08/16 00:23:33;;;;;;;26.83;21.02;;;15.50;99.90;;;;;;4974124;28;20105;-72
2023/08/16 00:26:09;;;;;;;36.65;24.45;;;15.50;99.90;;;;;;4968646;28;20465;-72
2023/08/16 00:28:39;;;;;;;37.97;26.33;;;15.50;99.90;;;;;;4974409;28;20464;-72
2023/08/16 00:31:06;;;;;;;31.95;26.02;;;15.50;99.90;;;;;;4965966;28;20642;-72
2023/08/16 00:33:33;;;;;;;45.50;27.42;;;15.50;99.90;;;;;;4967724;28;20049;-73
2023/08/16 00:36:00;;;;;;;52.35;27.48;;;15.50;99.90;;;;;;4973974;28;20097;-74
2023/08/16 00:38:27;;;;;;;34.67;26.20;;;15.50;99.90;;;;;;4966537;28;20709;-73
2023/08/16 00:40:54;;;;;;;37.33;28.27;;;15.50;99.90;;;;;;4969355;28;20063;-73
2023/08/16 00:43:21;;;;;;;44.95;29.63;;;15.60;99.90;;;;;;4965618;28;20268;-73
2023/08/16 00:45:48;;;;;;;36.65;27.48;;;15.60;99.90;;;;;;4975179;28;20468;-73
2023/08/16 00:48:17;;;;;;;41.92;26.92;;;15.40;99.90;;;;;;4970607;28;20043;-73
2023/08/16 00:50:46;;;;;;;40.75;27.67;;;15.50;99.90;;;;;;4967354;28;20042;-73
2023/08/16 00:53:17;;;;;;;51.33;27.80;;;15.50;99.90;;;;;;4969455;28;20057;-73
2023/08/16 00:55:44;;;;;;;49.83;29.15;;;15.50;99.90;;;;;;4973268;28;20050;-73
2023/08/16 00:58:11;;;;;;;46.72;28.63;;;15.40;99.90;;;;;;4968839;28;20047;-73
2023/08/16 01:00:38;;;;;;;46.45;28.65;;;15.40;99.90;;;;;;4969269;28;20997;-73
2023/08/16 01:03:08;;;;;;;56.60;30.40;;;15.50;99.90;;;;;;4968560;28;20661;-73
2023/08/16 01:05:35;;;;;;;50.45;29.67;;;15.40;99.90;;;;;;4968063;28;20058;-73
2023/08/16 01:08:02;;;;;;;62.38;30.67;;;15.40;99.90;;;;;;4963312;28;20047;-73
2023/08/16 01:10:57;;;;;;;58.08;30.38;;;15.50;99.90;;;;;;4969135;28;20053;-73
2023/08/16 01:13:45;;;;;;;61.53;31.48;;;15.50;99.90;;;;;;4966540;28;21018;-73
2023/08/16 01:16:12;;;;;;;55.50;31.75;;;15.50;99.90;;;;;;4963488;28;20043;-73
2023/08/16 01:18:41;;;;;;;57.22;30.67;;;15.40;99.90;;;;;;4965972;28;20731;-73
2023/08/16 01:21:15;;;;;;;55.67;29.05;;;15.30;99.90;;;;;;4964981;28;20074;-74
2023/08/16 01:24:03;;;;;;;53.13;28.00;;;15.30;99.90;;;;;;4973642;28;20085;-74
2023/08/16 01:26:35;;;;;;;52.50;30.15;;;15.30;99.90;;;;;;4974585;28;20050;-73
2023/08/16 01:29:05;;;;;;;53.63;30.73;;;15.20;99.90;;;;;;4966707;28;20038;-74
2023/08/16 01:31:33;;;;;;;48.35;30.05;;;15.30;99.90;;;;;;4970398;28;20049;-73
2023/08/16 01:34:00;;;;;;;51.83;32.53;;;15.20;99.90;;;;;;4970671;28;20043;-73
2023/08/16 01:36:27;;;;;;;56.20;31.83;;;15.20;99.90;;;;;;4968104;28;20046;-73
2023/08/16 01:38:55;;;;;;;59.60;32.88;;;15.20;99.90;;;;;;4973194;28;20120;-73
2023/08/16 01:41:56;;;;;;;54.20;32.28;;;15.10;99.90;;;;;;4976076;28;20157;-73
2023/08/16 01:44:24;;;;;;;54.40;31.85;;;15.10;99.90;;;;;;4980271;28;20124;-73
2023/08/16 01:46:53;;;;;;;50.55;28.15;;;15.10;99.90;;;;;;5000763;28;20046;-73
2023/08/16 01:49:21;;;;;;;47.45;30.20;;;15.10;99.90;;;;;;4982126;28;20081;-73
2023/08/16 01:51:50;;;;;;;53.20;31.33;;;15.30;99.90;;;;;;4975304;28;20056;-73
2023/08/16 01:54:17;;;;;;;51.42;29.27;;;15.40;99.90;;;;;;4977818;28;20050;-73
2023/08/16 01:56:43;;;;;;;46.97;30.13;;;15.40;99.90;;;;;;4969904;28;20034;-73
2023/08/16 01:59:14;;;;;;;52.15;30.23;;;15.50;99.90;;;;;;4965660;28;20469;-73
2023/08/16 02:01:40;;;;;;;59.22;34.08;;;15.40;99.90;;;;;;4966595;28;20239;-73
2023/08/16 02:04:07;;;;;;;52.92;31.67;;;15.40;99.90;;;;;;4968646;28;20054;-73
2023/08/16 02:06:34;;;;;;;45.67;29.70;;;15.40;99.90;;;;;;4962127;28;20057;-73
2023/08/16 02:09:01;;;;;;;52.65;29.67;;;15.50;99.90;;;;;;4972606;28;20038;-72
2023/08/16 02:11:29;;;;;;;50.30;29.25;;;15.50;99.90;;;;;;4979861;28;20057;-73
2023/08/16 02:13:57;;;;;;;39.25;26.05;;;15.50;99.90;;;;;;4970596;28;20129;-73
2023/08/16 02:16:29;;;;;;;52.75;27.15;;;15.40;99.90;;;;;;4950540;28;20049;-72
2023/08/16 02:18:56;;;;;;;114.43;31.83;;;15.40;99.90;;;;;;4963665;28;20064;-72
2023/08/16 02:21:23;;;;;;;111.85;31.58;;;15.40;99.90;;;;;;4966157;28;20061;-74
2023/08/16 02:23:49;;;;;;;50.38;28.35;;;15.30;99.90;;;;;;4973156;28;20054;-71
2023/08/16 02:26:16;;;;;;;54.15;30.02;;;15.20;99.90;;;;;;4969004;28;20125;-71
2023/08/16 02:28:43;;;;;;;56.90;30.02;;;15.20;99.90;;;;;;4951363;28;20100;-74
2023/08/16 02:31:10;;;;;;;57.00;30.95;;;15.20;99.90;;;;;;4967385;28;20042;-74
2023/08/16 02:33:42;;;;;;;51.35;30.05;;;15.10;99.90;;;;;;4967852;28;20168;-73
2023/08/16 02:36:09;;;;;;;59.50;28.83;;;15.10;99.90;;;;;;4966958;28;20038;-73
2023/08/16 02:38:36;;;;;;;41.47;26.38;;;15.20;99.90;;;;;;4969429;28;20513;-73
2023/08/16 02:41:03;;;;;;;56.42;30.88;;;15.40;99.90;;;;;;4970905;28;20066;-73
2023/08/16 02:43:31;;;;;;;49.83;29.08;;;15.30;99.90;;;;;;4970856;28;20058;-73
2023/08/16 02:45:57;;;;;;;41.22;27.50;;;15.20;99.90;;;;;;4969647;28;20050;-73
2023/08/16 02:48:28;;;;;;;40.70;25.85;;;15.30;99.90;;;;;;4968704;28;20049;-73
2023/08/16 02:50:57;;;;;;;38.17;26.90;;;15.40;99.90;;;;;;4967481;28;20436;-73
2023/08/16 02:53:24;;;;;;;44.75;27.27;;;15.40;99.90;;;;;;4973365;28;20053;-73
2023/08/16 02:55:51;;;;;;;48.53;30.00;;;15.30;99.90;;;;;;4974188;28;20050;-73
2023/08/16 02:58:18;;;;;;;39.08;27.08;;;15.20;99.90;;;;;;4971365;28;20528;-72
2023/08/16 03:00:48;;;;;;;40.08;26.50;;;15.20;99.90;;;;;;4973141;28;20596;-73
2023/08/16 03:03:18;;;;;;;48.50;27.02;;;15.30;99.90;;;;;;4969093;28;20043;-73
2023/08/16 03:05:44;;;;;;;50.33;31.05;;;15.30;99.90;;;;;;4971100;28;20042;-73
2023/08/16 03:08:11;;;;;;;49.25;29.77;;;15.20;99.90;;;;;;4972218;28;20456;-73
2023/08/16 03:10:38;;;;;;;45.28;28.90;;;15.20;99.90;;;;;;4970085;28;20067;-72
2023/08/16 03:13:05;;;;;;;58.53;30.73;;;15.20;99.90;;;;;;4971984;28;20078;-72
2023/08/16 03:15:33;;;;;;;53.22;31.05;;;15.20;99.90;;;;;;4969079;28;20065;-72
2023/08/16 03:18:00;;;;;;;53.83;32.63;;;15.20;99.90;;;;;;4964236;28;20065;-73
2023/08/16 03:20:28;;;;;;;69.55;35.97;;;15.20;99.90;;;;;;4969915;28;20082;-73
2023/08/16 03:22:54;;;;;;;64.00;34.50;;;15.30;99.90;;;;;;4973854;28;20043;-73
2023/08/16 03:25:21;;;;;;;56.88;32.72;;;15.30;99.90;;;;;;4969236;28;20311;-73
2023/08/16 03:27:48;;;;;;;62.05;32.75;;;15.30;99.90;;;;;;4968435;28;20053;-73
2023/08/16 03:30:15;;;;;;;63.03;33.55;;;15.20;99.90;;;;;;4971649;28;20047;-73
2023/08/16 03:32:43;;;;;;;57.78;32.33;;;15.20;99.90;;;;;;4972893;28;20046;-73
2023/08/16 03:35:11;;;;;;;68.00;34.90;;;15.20;99.90;;;;;;4968552;28;20049;-73
2023/08/16 03:37:38;;;;;;;72.80;37.42;;;15.10;99.90;;;;;;4973385;28;20097;-73
2023/08/16 03:40:06;;;;;;;80.05;37.45;;;15.10;99.90;;;;;;4976360;28;20070;-73
2023/08/16 03:42:33;;;;;;;85.57;38.65;;;15.10;99.90;;;;;;4965900;28;20508;-72
2023/08/16 03:45:00;;;;;;;66.05;36.85;;;15.10;99.90;;;;;;4974786;28;20097;-73
2023/08/16 03:47:29;;;;;;;70.90;38.63;;;15.20;99.90;;;;;;4968568;28;20433;-73
2023/08/16 03:49:57;;;;;;;83.43;40.72;;;15.20;99.90;;;;;;4952682;28;20736;-73
2023/08/16 03:52:24;;;;;;;84.40;42.55;;;15.30;99.90;;;;;;4965342;28;20063;-73
2023/08/16 03:54:51;;;;;;;85.28;40.78;;;15.30;99.90;;;;;;4972528;28;20610;-73
2023/08/16 03:57:18;;;;;;;77.75;40.92;;;15.30;99.90;;;;;;4970696;28;20038;-73
2023/08/16 03:59:44;;;;;;;74.90;40.85;;;15.40;99.90;;;;;;4986679;28;20050;-73
2023/08/16 04:02:11;;;;;;;69.45;39.53;;;15.40;99.90;;;;;;4967403;28;20559;-73
2023/08/16 04:04:38;;;;;;;78.93;39.05;;;15.30;99.90;;;;;;4970452;28;20046;-73
2023/08/16 04:07:05;;;;;;;60.35;34.47;;;15.10;99.90;;;;;;4969642;28;20420;-73
2023/08/16 04:09:34;;;;;;;52.55;30.60;;;15.00;99.90;;;;;;4969028;28;20458;-73
2023/08/16 04:12:01;;;;;;;41.83;28.10;;;14.90;99.90;;;;;;4981164;28;20101;-73
2023/08/16 04:14:28;;;;;;;50.30;30.25;;;14.80;99.90;;;;;;4971578;28;20113;-73
2023/08/16 04:16:55;;;;;;;45.30;30.17;;;14.80;99.90;;;;;;4969100;28;20042;-73
2023/08/16 04:19:22;;;;;;;54.70;32.33;;;14.90;99.90;;;;;;4968814;28;20054;-73
2023/08/16 04:21:49;;;;;;;51.05;33.10;;;15.10;99.90;;;;;;4988036;28;20564;-73
2023/08/16 04:24:15;;;;;;;55.33;33.40;;;15.00;99.90;;;;;;4971456;28;20070;-72
2023/08/16 04:26:50;;;;;;;49.03;32.30;;;15.00;99.90;;;;;;4985516;28;20113;-72
2023/08/16 04:29:18;;;;;;;56.80;33.53;;;15.10;99.90;;;;;;4954229;28;20045;-73
2023/08/16 04:31:44;;;;;;;58.95;32.67;;;15.20;99.90;;;;;;4972204;28;20623;-73
2023/08/16 04:34:11;;;;;;;71.97;39.90;;;15.30;99.90;;;;;;4972856;28;20622;-73
2023/08/16 04:36:38;;;;;;;83.82;46.45;;;15.30;99.90;;;;;;4966845;28;20043;-73
2023/08/16 04:39:05;;;;;;;85.55;43.05;;;15.50;99.90;;;;;;4973970;28;20049;-73
2023/08/16 04:41:32;;;;;;;56.25;33.83;;;15.60;99.90;;;;;;4965800;28;21460;-74
2023/08/16 04:43:59;;;;;;;47.33;31.73;;;15.30;99.90;;;;;;4971567;28;20050;-73
2023/08/16 04:46:28;;;;;;;41.83;30.42;;;15.30;99.90;;;;;;4968906;28;20054;-73
2023/08/16 04:48:55;;;;;;;50.50;31.55;;;15.50;99.90;;;;;;4973422;28;20039;-73
2023/08/16 04:51:22;;;;;;;54.55;31.52;;;15.60;99.90;;;;;;4964500;28;20089;-73
2023/08/16 04:53:49;;;;;;;57.42;33.60;;;15.70;99.90;;;;;;4955592;28;20054;-73
2023/08/16 04:56:16;;;;;;;52.13;31.35;;;15.80;99.90;;;;;;4967272;28;20734;-73
2023/08/16 04:58:43;;;;;;;54.30;33.95;;;15.70;99.90;;;;;;4981853;28;20585;-73
2023/08/16 05:01:10;;;;;;;60.22;36.20;;;15.70;99.90;;;;;;4973297;28;20073;-73
2023/08/16 05:03:38;;;;;;;63.70;35.40;;;15.70;99.90;;;;;;4968988;28;20044;-73
2023/08/16 05:06:05;;;;;;;61.40;38.33;;;15.90;99.90;;;;;;4973026;28;20105;-73
2023/08/16 05:08:33;;;;;;;71.57;38.97;;;16.10;99.90;;;;;;4969581;28;20078;-73
2023/08/16 05:11:02;;;;;;;86.10;43.65;;;16.20;99.90;;;;;;4967123;28;20126;-72
2023/08/16 05:13:28;;;;;;;97.55;45.60;;;16.30;99.90;;;;;;4967712;28;20046;-73
2023/08/16 05:15:55;;;;;;;81.22;45.40;;;16.40;99.90;;;;;;4963398;28;20129;-73
2023/08/16 05:18:22;;;;;;;64.78;37.47;;;16.40;99.90;;;;;;4957647;28;20108;-73
2023/08/16 05:20:55;;;;;;;70.32;41.65;;;16.40;99.90;;;;;;4983696;28;20049;-73
2023/08/16 05:23:22;;;;;;;61.22;37.83;;;16.50;99.90;;;;;;4950397;28;20265;-72
2023/08/16 05:25:49;;;;;;;91.18;48.00;;;16.50;99.90;;;;;;4969118;28;20057;-73
2023/08/16 05:28:16;;;;;;;86.07;44.55;;;16.60;99.90;;;;;;4966909;28;20066;-73
2023/08/16 05:30:42;;;;;;;82.85;40.75;;;16.80;99.90;;;;;;4968256;28;20683;-73
2023/08/16 05:33:09;;;;;;;61.60;39.25;;;16.80;99.90;;;;;;4971683;28;20038;-72
2023/08/16 05:35:36;;;;;;;65.00;38.95;;;16.90;99.90;;;;;;4967971;28;20050;-73
2023/08/16 05:38:05;;;;;;;68.43;39.03;;;16.90;99.90;;;;;;4984017;28;20104;-73
2023/08/16 05:40:32;;;;;;;48.53;34.42;;;16.90;99.90;;;;;;4988147;28;20046;-73
2023/08/16 05:42:59;;;;;;;42.90;31.23;;;16.90;99.90;;;;;;4980802;28;20034;-72
2023/08/16 05:45:30;;;;;;;48.30;33.85;;;17.10;99.90;;;;;;4970236;28;20108;-73
2023/08/16 05:47:56;;;;;;;54.03;33.55;;;17.10;99.90;;;;;;4970174;28;20086;-73
2023/08/16 05:50:23;;;;;;;55.58;36.85;;;17.20;99.90;;;;;;4963130;28;20074;-73
2023/08/16 05:52:50;;;;;;;64.07;37.67;;;17.30;99.90;;;;;;4971626;28;20053;-73
2023/08/16 05:55:17;;;;;;;49.22;34.65;;;17.50;99.90;;;;;;4977097;28;20038;-73
2023/08/16 05:57:44;;;;;;;75.88;45.38;;;17.60;99.90;;;;;;4980372;28;20144;-73
2023/08/16 06:00:11;;;;;;;69.10;42.42;;;17.70;99.90;;;;;;4976451;28;20046;-72
2023/08/16 06:02:38;;;;;;;88.80;49.63;;;17.80;99.90;;;;;;4978959;28;20065;-73
2023/08/16 06:05:05;;;;;;;76.95;46.00;;;18.00;99.90;;;;;;4968295;28;20512;-72
2023/08/16 06:07:31;;;;;;;90.82;51.03;;;18.10;99.90;;;;;;4983544;28;20053;-72
2023/08/16 06:09:58;;;;;;;84.65;48.55;;;18.20;99.90;;;;;;4968364;28;20038;-73
2023/08/16 06:12:27;;;;;;;97.00;51.90;;;18.20;99.90;;;;;;4961712;28;20045;-73
2023/08/16 06:14:55;;;;;;;91.50;51.30;;;18.30;99.90;;;;;;4971328;28;20101;-72
2023/08/16 06:17:21;;;;;;;93.43;51.50;;;18.30;99.90;;;;;;4959678;28;20047;-73
2023/08/16 06:19:49;;;;;;;85.85;49.55;;;18.30;99.90;;;;;;4969750;28;20069;-73
2023/08/16 06:22:16;;;;;;;92.50;49.15;;;18.30;99.90;;;;;;4974849;28;20039;-72
2023/08/16 06:24:43;;;;;;;90.03;49.90;;;18.40;99.90;;;;;;4970419;28;20558;-72
2023/08/16 06:27:10;;;;;;;91.95;50.95;;;18.50;99.90;;;;;;4966274;28;20046;-72
2023/08/16 06:29:37;;;;;;;74.45;47.35;;;18.60;99.90;;;;;;4969870;28;20141;-72
2023/08/16 06:32:04;;;;;;;86.32;50.50;;;18.70;99.90;;;;;;4969345;28;20039;-72
2023/08/16 06:34:31;;;;;;;74.25;46.80;;;18.80;99.90;;;;;;4963980;28;20082;-72
2023/08/16 06:36:58;;;;;;;66.63;45.30;;;18.90;99.90;;;;;;4967710;28;20062;-72
2023/08/16 06:39:25;;;;;;;63.58;39.67;;;19.00;99.90;;;;;;4969990;28;20081;-73
2023/08/16 06:41:52;;;;;;;68.10;41.88;;;19.00;99.90;;;;;;4963314;28;20043;-74
2023/08/16 06:44:19;;;;;;;50.25;36.05;;;19.10;99.90;;;;;;4965313;28;20492;-74
2023/08/16 06:46:46;;;;;;;54.72;36.22;;;19.10;99.90;;;;;;4970764;28;21117;-72
2023/08/16 06:49:13;;;;;;;48.70;35.05;;;19.10;99.90;;;;;;4972003;28;20042;-73
2023/08/16 06:51:40;;;;;;;38.88;28.33;;;19.10;99.90;;;;;;4980327;28;20852;-71
2023/08/16 06:54:07;;;;;;;38.95;27.25;;;18.90;99.90;;;;;;4969624;28;20053;-73
2023/08/16 06:56:34;;;;;;;30.60;24.42;;;18.80;99.90;;;;;;4968835;28;20054;-73
2023/08/16 06:59:03;;;;;;;29.15;22.55;;;18.90;99.90;;;;;;4970860;28;20047;-74
2023/08/16 07:01:29;;;;;;;29.80;25.05;;;19.00;99.90;;;;;;4968089;28;20398;-74
2023/08/16 07:03:56;;;;;;;36.00;24.83;;;19.20;99.90;;;;;;4970978;28;20038;-74
2023/08/16 07:06:26;;;;;;;33.13;23.88;;;19.20;99.90;;;;;;4969563;28;20698;-74
2023/08/16 07:08:56;;;;;;;31.17;22.60;;;19.30;99.90;;;;;;4963867;28;20046;-74
2023/08/16 07:11:24;;;;;;;29.45;18.98;;;19.50;99.90;;;;;;4964853;28;20046;-73
2023/08/16 07:13:51;;;;;;;24.45;19.10;;;19.60;99.90;;;;;;4968576;28;20042;-73
2023/08/16 07:16:18;;;;;;;23.27;19.70;;;19.80;99.90;;;;;;4966509;28;20327;-74
2023/08/16 07:18:45;;;;;;;26.48;19.13;;;19.60;99.90;;;;;;4963391;28;20133;-73
2023/08/16 07:21:12;;;;;;;24.73;17.88;;;19.60;99.90;;;;;;4969649;28;20068;-73
2023/08/16 07:23:38;;;;;;;26.55;18.52;;;19.40;99.90;;;;;;4968748;28;20057;-73
2023/08/16 07:26:05;;;;;;;25.15;19.23;;;19.40;99.90;;;;;;4972629;28;20042;-73
2023/08/16 07:28:32;;;;;;;27.17;19.58;;;19.40;99.90;;;;;;4952040;28;20149;-74
2023/08/16 07:30:59;;;;;;;25.63;17.77;;;19.40;99.90;;;;;;4972439;28;20038;-73
2023/08/16 07:33:27;;;;;;;23.48;18.83;;;19.50;99.90;;;;;;4972897;28;20046;-73
2023/08/16 07:35:59;;;;;;;27.02;18.48;;;19.40;99.90;;;;;;4974313;28;20054;-74
2023/08/16 07:38:26;;;;;;;24.55;19.42;;;19.20;99.90;;;;;;4967886;28;20110;-73
2023/08/16 07:40:52;;;;;;;23.52;18.75;;;19.10;99.90;;;;;;4970344;28;20886;-72
2023/08/16 07:43:19;;;;;;;24.90;18.90;;;19.20;99.90;;;;;;4990669;28;20101;-76
2023/08/16 07:45:52;;;;;;;25.63;19.00;;;19.20;99.90;;;;;;4975461;28;20054;-76
2023/08/16 07:48:19;;;;;;;21.98;17.70;;;19.40;99.90;;;;;;4978749;28;20130;-79
2023/08/16 07:50:50;;;;;;;23.85;18.20;;;19.70;99.90;;;;;;4979154;28;20808;-79
2023/08/16 07:53:17;;;;;;;26.63;21.60;;;19.90;99.90;;;;;;4997150;28;20200;-78
2023/08/16 07:55:44;;;;;;;24.48;20.55;;;19.90;99.90;;;;;;4983196;28;20730;-78
2023/08/16 07:58:13;;;;;;;26.85;20.85;;;19.80;99.90;;;;;;4988510;28;20046;-77
2023/08/16 08:00:40;;;;;;;24.02;19.83;;;19.80;99.90;;;;;;4997164;28;20039;-78
2023/08/16 08:03:08;;;;;;;22.50;19.35;;;19.80;99.90;;;;;;4991278;28;20089;-78
2023/08/16 08:05:38;;;;;;;21.50;19.50;;;20.30;99.90;;;;;;4986841;28;20038;-77
2023/08/16 08:08:06;;;;;;;24.25;21.65;;;20.40;99.90;;;;;;4999257;28;20307;-75
2023/08/16 08:10:33;;;;;;;25.40;20.58;;;20.20;99.90;;;;;;4967889;28;20042;-76
2023/08/16 08:13:03;;;;;;;26.00;23.20;;;20.20;99.90;;;;;;4981898;28;20035;-76
2023/08/16 08:15:29;;;;;;;27.02;24.15;;;20.00;99.90;;;;;;4998012;28;20155;-76
2023/08/16 08:17:56;;;;;;;33.72;25.52;;;20.00;99.90;;;;;;4976118;28;20046;-76
2023/08/16 08:20:23;;;;;;;30.77;26.40;;;20.20;99.90;;;;;;4988017;28;20042;-76
2023/08/16 08:22:50;;;;;;;30.00;26.90;;;19.90;99.90;;;;;;4985177;28;20049;-76
2023/08/16 08:25:17;;;;;;;27.85;23.33;;;19.80;99.90;;;;;;4986707;28;20065;-76
2023/08/16 08:27:46;;;;;;;29.52;25.40;;;19.70;99.90;;;;;;4973305;28;20233;-75
2023/08/16 08:30:14;;;;;;;37.38;27.70;;;19.80;99.90;;;;;;4980918;28;20065;-76
2023/08/16 08:32:41;;;;;;;31.15;27.85;;;19.80;99.90;;;;;;4978204;28;20069;-77
2023/08/16 08:35:08;;;;;;;32.03;28.83;;;20.10;99.90;;;;;;4980383;28;20050;-76
2023/08/16 08:37:35;;;;;;;33.03;29.50;;;19.80;99.90;;;;;;4979601;28;20043;-76
2023/08/16 08:40:03;;;;;;;28.45;25.65;;;19.90;99.90;;;;;;4978626;28;20051;-76
2023/08/16 08:42:31;;;;;;;31.15;27.73;;;20.20;99.90;;;;;;4978773;28;20505;-76
2023/08/16 08:45:01;;;;;;;29.83;26.80;;;20.10;99.90;;;;;;4977472;28;20042;-76
2023/08/16 08:47:29;;;;;;;32.30;29.15;;;20.40;99.90;;;;;;4979500;28;20069;-76
2023/08/16 08:49:58;;;;;;;31.58;28.08;;;20.30;99.90;;;;;;4968947;28;20112;-75
2023/08/16 08:52:27;;;;;;;32.55;29.05;;;20.50;99.90;;;;;;4995016;28;20173;-75
2023/08/16 08:54:58;;;;;;;33.33;30.02;;;20.60;99.90;;;;;;4981012;28;20039;-76
2023/08/16 08:57:30;;;;;;;31.48;28.48;;;20.40;99.90;;;;;;4979850;28;20114;-76
2023/08/16 09:00:00;;;;;;;30.40;27.15;;;20.40;99.90;;;;;;4954550;28;21097;-76
2023/08/16 09:02:33;;;;;;;31.67;28.60;;;20.40;99.90;;;;;;4976378;28;20065;-76
2023/08/16 09:05:05;;;;;;;31.85;28.60;;;20.20;99.90;;;;;;4972383;28;20046;-77
2023/08/16 09:07:34;;;;;;;33.75;30.42;;;20.00;99.90;;;;;;4965220;28;20050;-77
2023/08/16 09:10:01;;;;;;;31.50;28.27;;;20.20;99.90;;;;;;4970635;28;20094;-76
2023/08/16 09:12:28;;;;;;;32.67;29.48;;;20.30;99.90;;;;;;4950634;28;20048;-76
2023/08/16 09:14:55;;;;;;;32.70;29.20;;;20.10;99.90;;;;;;4971155;28;21423;-77
2023/08/16 09:17:22;;;;;;;31.63;28.50;;;20.10;99.90;;;;;;4965073;28;20085;-77
2023/08/16 09:19:49;;;;;;;32.40;29.48;;;20.00;99.90;;;;;;4966451;28;20069;-76
2023/08/16 09:22:17;;;;;;;35.15;31.40;;;20.30;99.90;;;;;;4970207;28;20038;-75
2023/08/16 09:24:44;;;;;;;31.92;28.50;;;20.10;99.90;;;;;;4966034;28;20042;-75
2023/08/16 09:27:11;;;;;;;32.53;29.40;;;20.30;99.90;;;;;;4965788;28;20684;-75
2023/08/16 09:29:39;;;;;;;31.98;28.65;;;20.50;99.90;;;;;;4970825;28;20428;-75
2023/08/16 09:32:10;;;;;;;28.95;26.42;;;20.30;99.90;;;;;;4969381;28;20163;-75
2023/08/16 09:34:40;;;;;;;32.47;29.13;;;20.70;99.90;;;;;;4966021;28;20042;-78
2023/08/16 09:37:21;;;;;;;30.10;27.38;;;20.90;99.90;;;;;;4965567;28;20043;-76
2023/08/16 09:39:59;;;;;;;32.08;29.38;;;21.30;99.90;;;;;;4967662;28;20133;-77
2023/08/16 09:42:35;;;;;;;29.23;27.02;;;21.20;99.90;;;;;;4966961;28;20046;-77
2023/08/16 09:45:02;;;;;;;30.58;28.02;;;21.50;99.90;;;;;;4971979;28;20104;-77
2023/08/16 09:47:31;;;;;;;32.95;30.33;;;21.90;99.90;;;;;;4971658;28;20760;-77
2023/08/16 09:50:03;;;;;;;33.72;30.98;;;22.00;99.90;;;;;;4964630;28;20675;-75
2023/08/16 09:52:31;;;;;;;32.15;29.60;;;22.00;99.90;;;;;;4954181;28;20065;-75
2023/08/16 09:54:59;;;;;;;33.55;30.77;;;22.40;99.90;;;;;;4971332;28;20058;-75
2023/08/16 09:57:27;;;;;;;30.77;28.08;;;22.20;99.90;;;;;;4966613;28;20026;-77
2023/08/16 09:59:56;;;;;;;31.50;29.10;;;22.10;99.90;;;;;;4968564;28;20513;-75
2023/08/16 10:02:24;;;;;;;30.48;27.90;;;22.00;99.90;;;;;;4967044;28;20760;-76
2023/08/16 10:04:55;;;;;;;28.13;26.02;;;22.20;99.90;;;;;;4998484;28;20045;-76
2023/08/16 10:07:26;;;;;;;28.63;26.48;;;22.80;99.90;;;;;;4992141;28;20177;-74
2023/08/16 10:09:53;;;;;;;29.83;27.52;;;22.70;99.90;;;;;;4967258;28;20065;-74
2023/08/16 10:12:21;;;;;;;34.88;31.98;;;22.50;99.90;;;;;;4969537;28;20689;-76
2023/08/16 10:14:49;;;;;;;29.10;26.90;;;22.90;99.90;;;;;;4969178;28;20589;-76
2023/08/16 10:17:19;;;;;;;34.10;31.30;;;22.60;99.90;;;;;;4965223;28;20042;-76
2023/08/16 10:19:49;;;;;;;34.88;31.50;;;22.60;99.90;;;;;;4964658;28;20111;-77
2023/08/16 10:22:23;;;;;;;33.88;30.70;;;22.10;99.90;;;;;;4969039;28;20043;-76
2023/08/16 10:24:55;;;;;;;32.28;29.23;;;21.90;99.90;;;;;;4967564;28;21427;-76
2023/08/16 10:27:22;;;;;;;30.75;28.35;;;21.80;99.90;;;;;;4966850;28;20050;-73
2023/08/16 10:29:57;;;;;;;33.17;29.92;;;22.20;99.90;;;;;;4981768;28;20049;-74
2023/08/16 10:32:35;;;;;;;35.22;32.00;;;22.50;99.90;;;;;;4970724;28;20046;-76
2023/08/16 10:35:02;;;;;;;31.75;29.00;;;22.40;99.90;;;;;;4969823;28;20436;-76
2023/08/16 10:37:29;;;;;;;32.05;29.23;;;22.70;99.90;;;;;;4951156;28;20042;-75
2023/08/16 10:39:56;;;;;;;34.42;31.63;;;23.60;99.90;;;;;;4968385;28;20042;-75
2023/08/16 10:42:48;;;;;;;32.63;29.98;;;23.90;99.90;;;;;;4967839;28;20042;-75
2023/08/16 10:45:29;;;;;;;32.72;30.00;;;23.90;99.90;;;;;;4964173;28;20044;-75
2023/08/16 10:48:11;;;;;;;32.20;29.10;;;23.40;99.90;;;;;;4969686;28;20408;-74
2023/08/16 10:50:42;;;;;;;33.08;30.48;;;23.10;99.90;;;;;;4961101;28;20042;-75
2023/08/16 10:53:09;;;;;;;34.30;31.60;;;23.50;99.90;;;;;;4970673;28;20146;-75
2023/08/16 10:55:36;;;;;;;35.05;32.20;;;23.90;99.90;;;;;;4984514;28;20042;-74
2023/08/16 10:58:03;;;;;;;34.67;31.75;;;24.10;99.90;;;;;;4983020;28;20053;-74
2023/08/16 11:00:32;;;;;;;36.67;33.53;;;24.00;99.90;;;;;;4969177;28;20058;-74
2023/08/16 11:03:01;;;;;;;34.55;31.73;;;24.00;99.90;;;;;;4973507;28;20093;-75
2023/08/16 11:05:31;;;;;;;33.78;31.23;;;24.00;99.90;;;;;;4966686;28;20859;-75
2023/08/16 11:08:08;;;;;;;33.65;31.05;;;23.70;99.90;;;;;;4972177;28;20050;-75
2023/08/16 11:10:38;;;;;;;33.33;30.40;;;23.50;99.90;;;;;;4953489;28;20065;-74
2023/08/16 11:13:10;;;;;;;35.72;32.05;;;23.80;99.90;;;;;;4966328;28;20052;-74
2023/08/16 11:15:41;;;;;;;32.70;29.90;;;23.60;99.90;;;;;;4971353;28;20049;-74
2023/08/16 11:18:08;;;;;;;31.15;28.70;;;22.90;99.90;;;;;;4964240;28;20042;-73
2023/08/16 11:20:38;;;;;;;34.00;31.20;;;22.60;99.90;;;;;;4968852;28;20049;-72
2023/08/16 11:23:05;;;;;;;34.97;31.73;;;22.60;99.90;;;;;;4957470;28;20043;-73
2023/08/16 11:25:34;;;;;;;29.48;27.20;;;22.60;99.90;;;;;;4957209;28;20054;-73
2023/08/16 11:28:03;;;;;;;31.60;29.30;;;22.80;99.90;;;;;;4971415;28;20046;-72
2023/08/16 11:30:31;;;;;;;30.95;28.60;;;23.20;99.90;;;;;;4965900;28;20082;-73
2023/08/16 11:32:59;;;;;;;31.98;29.42;;;23.30;99.90;;;;;;4966437;28;20046;-73
2023/08/16 11:35:26;;;;;;;32.45;29.52;;;23.10;99.90;;;;;;4969751;28;21027;-71
2023/08/16 11:37:53;;;;;;;32.13;29.42;;;22.50;99.90;;;;;;4971500;28;20541;-69
2023/08/16 11:40:23;;;;;;;31.00;28.58;;;22.60;99.90;;;;;;4987563;28;20042;-68
2023/08/16 11:42:51;;;;;;;30.75;27.98;;;22.80;99.90;;;;;;4966387;28;20042;-68
2023/08/16 11:45:24;;;;;;;33.95;31.15;;;22.90;99.90;;;;;;4973562;28;20033;-68
2023/08/16 11:47:52;;;;;;;35.60;32.33;;;22.60;99.90;;;;;;4953649;28;20136;-69
2023/08/16 11:50:20;;;;;;;34.25;31.00;;;22.60;99.90;;;;;;4968576;28;20034;-69
2023/08/16 11:53:00;;;;;;;36.10;33.17;;;22.60;99.90;;;;;;4970406;28;20051;-69
2023/08/16 11:55:29;;;;;;;34.40;31.48;;;22.30;99.90;;;;;;4967517;28;20054;-69
2023/08/16 11:58:09;;;;;;;34.17;31.42;;;22.40;99.90;;;;;;4966821;28;20128;-69
2023/08/16 12:00:38;;;;;;;35.70;32.45;;;22.60;99.90;;;;;;4971050;28;20038;-68
2023/08/16 12:03:08;;;;;;;37.00;33.88;;;23.20;99.90;;;;;;4969740;28;20046;-69
2023/08/16 12:05:38;;;;;;;34.40;31.50;;;23.40;99.90;;;;;;4971638;28;20471;-69
2023/08/16 12:08:08;;;;;;;37.72;34.50;;;23.50;99.90;;;;;;4972381;28;20070;-70
2023/08/16 12:10:35;;;;;;;36.53;33.30;;;23.40;99.90;;;;;;4967802;28;20042;-68
2023/08/16 12:13:15;;;;;;;34.50;31.60;;;23.50;99.90;;;;;;4966042;28;20042;-70
2023/08/16 12:15:42;;;;;;;36.97;33.53;;;24.10;99.90;;;;;;4985391;28;20531;-70
2023/08/16 12:18:10;;;;;;;34.80;31.65;;;23.90;99.90;;;;;;4962879;28;20058;-69
2023/08/16 12:20:37;;;;;;;34.60;31.55;;;23.70;99.90;;;;;;4971120;28;20051;-69
2023/08/16 12:23:03;;;;;;;36.22;32.97;;;23.70;99.90;;;;;;4970336;28;20054;-69
2023/08/16 12:25:30;;;;;;;37.80;34.58;;;23.70;99.90;;;;;;4968651;28;20042;-69
2023/08/16 12:27:57;;;;;;;37.42;33.95;;;23.40;99.90;;;;;;4969184;28;20042;-68
2023/08/16 12:30:24;;;;;;;38.85;35.55;;;23.00;99.90;;;;;;4968303;28;20101;-68
2023/08/16 12:32:51;;;;;;;37.05;33.42;;;22.80;99.90;;;;;;4966597;28;21573;-69